Dolores, Colorado
Current Conditions -  °F | °C
As of 4:53 AM on Monday 20 Oct 2014 (Local Time) from KCEZ Reporting Station
Clear Clear  
Wind Chill: 36°   Ceiling: Unl
Heat Index: 40°   Visibility: 10mi
Dew Point: 38°   Wind: 6mph
Humidity: 93%   Direction: 60°ENE
Pressure: 30.18"   Gusts: NA
Location:  37.47°N, 108.5°W
Report Text: KCEZ 201053Z AUTO 06005KT 10SM CLR 04/03 A3018 RMK AO2 SLP184 T00440033
Loading
Personal Weather Stations






























Interactive Weather Map
Tropical Storm Tracking
New forecast layout! Learn more

10-Day Weather Forecast

Advertisements
Track Severe Weather on mobile